Red Cedar — V7EH4 — position and weather

sailwx.info

Track history (hours):
 
Tides and Currents Weather Stations Pressure Air Temp Water Temp Dewpoint Dewpoint Depression Visibility Wind Speed Wind Dir Waves Ship Positions

Red Cedar

Last reported at 2017-Dec-15 20:00 UTC. Time now 2017-Dec-15 20:09 UTC.
Position N 51°23' E 002°06'.

Length 193 m; draft 9.8 m.

Type: Ship. MMSI: 538090070.

Date/timePositionNaut miles runAvg speedWind from/ knotsBaromVisibWave heightAir tempDewpointWater temp
2017-Dec-15 20:00N 51°23' E 002°06'816.1
2017-Dec-15 19:30N 51°21' E 002°19'917.4
2017-Dec-15 18:59N 51°23' E 002°33'815.8
2017-Dec-15 18:28N 51°24' E 002°46'716.0
2017-Dec-15 18:00N 51°25' E 002°57'917.6
2017-Dec-15 17:31N 51°24' E 003°12'918.3
2017-Dec-15 17:00N 51°25' E 003°26'917.3
2017-Dec-15 16:30N 51°27' E 003°40'714.4
2017-Dec-15 16:00N 51°21' E 003°48'713.8
2017-Dec-15 15:30N 51°24' E 003°57'4 8.1
2017-Dec-15 15:00N 51°23' E 004°03'612.0
2017-Dec-15 14:30N 51°23' E 004°13'4 7.3
2017-Dec-15 14:00N 51°21' E 004°17'0 0.0
2017-Dec-15 13:30N 51°21' E 004°17'0 0.0
2017-Dec-15 13:00N 51°21' E 004°17'1 1.0
2017-Dec-15 12:30N 51°20' E 004°18'3 6.9
2017-Dec-15 12:01N 51°17' E 004°20'2 3.1
2017-Dec-15 11:31N 51°17' E 004°22'0 0.1
2017-Dec-15 11:01N 51°17' E 004°22'0 0.0
2017-Dec-15 10:31N 51°17' E 004°22'0 0.0
2017-Dec-15 10:01N 51°17' E 004°22'0 0.0
2017-Dec-15 09:31N 51°17' E 004°22'0 0.0
2017-Dec-15 09:00N 51°17' E 004°22'0 0.0
2017-Dec-15 08:31N 51°17' E 004°22'0 0.0
2017-Dec-15 08:00N 51°17' E 004°22'0 0.0
2017-Dec-15 07:31N 51°17' E 004°22'0 0.0
2017-Dec-15 07:01N 51°17' E 004°22'0 0.0
2017-Dec-15 06:31N 51°17' E 004°22'0 0.0
2017-Dec-15 06:01N 51°17' E 004°22'0 0.0
2017-Dec-15 05:31N 51°17' E 004°22'0 0.0
2017-Dec-15 05:01N 51°17' E 004°22'0 0.0
2017-Dec-15 04:31N 51°17' E 004°22'0 0.0
2017-Dec-15 04:01N 51°17' E 004°22'0 0.0
2017-Dec-15 02:31N 51°17' E 004°23'0 0.0
2017-Dec-15 01:01N 51°17' E 004°22'0 0.0
2017-Dec-15 00:30N 51°17' E 004°22'0 0.0
2017-Dec-14 18:31N 51°17' E 004°23'0 0.0
2017-Dec-14 18:01N 51°17' E 004°22'0 0.0
2017-Dec-14 17:31N 51°17' E 004°22'0 0.0
2017-Dec-14 17:01N 51°17' E 004°22'0 0.0
2017-Dec-14 16:31N 51°17' E 004°22'0 0.0
2017-Dec-14 16:01N 51°17' E 004°22'0 0.0
2017-Dec-14 15:01N 51°17' E 004°22'0 0.0
2017-Dec-14 14:31N 51°17' E 004°22'0 0.0
2017-Dec-14 14:01N 51°17' E 004°22'0 0.0
2017-Dec-14 13:31N 51°17' E 004°22'0 0.0
2017-Dec-14 13:01N 51°17' E 004°22'0 0.0
2017-Dec-14 12:31N 51°17' E 004°22'0 0.0
2017-Dec-14 12:01N 51°17' E 004°22'0 0.0
2017-Dec-14 11:31N 51°17' E 004°22'0 0.0
2017-Dec-14 11:01N 51°17' E 004°22'0 0.0
2017-Dec-14 10:31N 51°17' E 004°22'0 0.0
2017-Dec-14 10:00N 51°17' E 004°22'0 0.0
2017-Dec-14 09:31N 51°17' E 004°22'0 0.0
2017-Dec-14 09:01N 51°17' E 004°22'0 0.0
2017-Dec-14 08:31N 51°17' E 004°22'0 0.0
2017-Dec-14 08:01N 51°17' E 004°22'0 0.0
2017-Dec-14 07:31N 51°17' E 004°22'0 0.0
2017-Dec-14 07:01N 51°17' E 004°22'0 0.0
2017-Dec-14 06:30N 51°17' E 004°22'0 0.0
2017-Dec-14 06:01N 51°17' E 004°22'0 0.0
2017-Dec-14 05:31N 51°17' E 004°22'0 0.0
2017-Dec-14 05:01N 51°17' E 004°22'0 0.0
2017-Dec-14 04:31N 51°17' E 004°22'0 0.0
2017-Dec-14 04:00N 51°17' E 004°22'0 0.0
2017-Dec-14 03:30N 51°17' E 004°22'0 0.0
2017-Dec-14 03:01N 51°17' E 004°22'0 0.0
2017-Dec-14 02:31N 51°17' E 004°22'0 0.0
2017-Dec-14 02:01N 51°17' E 004°22'0 0.0
2017-Dec-14 01:31N 51°17' E 004°22'0 0.0
2017-Dec-14 01:00N 51°17' E 004°22'0 0.0
2017-Dec-14 00:31N 51°17' E 004°22'0 0.0
2017-Dec-14 00:00N 51°17' E 004°22'0 0.0
2017-Dec-13 23:31N 51°17' E 004°22'0 0.0
2017-Dec-13 23:00N 51°17' E 004°22'0 0.0
2017-Dec-13 22:31N 51°17' E 004°22'0 0.0
2017-Dec-13 22:01N 51°17' E 004°22'0 0.0
2017-Dec-13 21:31N 51°17' E 004°22'0 0.0
2017-Dec-13 21:01N 51°17' E 004°22'0 0.0
2017-Dec-13 20:31N 51°17' E 004°22'0 0.0
2017-Dec-13 20:01N 51°17' E 004°22'0 0.0
2017-Dec-13 19:30N 51°17' E 004°22'0 0.0
2017-Dec-13 19:01N 51°17' E 004°22'0 0.0
2017-Dec-13 18:31N 51°17' E 004°22'0 0.0
2017-Dec-13 18:00N 51°17' E 004°22'0 0.0
2017-Dec-13 17:30N 51°17' E 004°22'0 0.0
2017-Dec-13 17:01N 51°17' E 004°22'0 0.0
2017-Dec-13 16:30N 51°17' E 004°22'0 0.0
2017-Dec-13 16:01N 51°17' E 004°22'0 0.0
2017-Dec-13 15:30N 51°17' E 004°22'0 0.0
2017-Dec-13 15:00N 51°17' E 004°22'0 0.0
2017-Dec-13 14:30N 51°17' E 004°22'0 0.0
2017-Dec-13 14:00N 51°17' E 004°22'0 0.0
2017-Dec-13 13:31N 51°17' E 004°22'0 0.0
2017-Dec-13 13:00N 51°17' E 004°22'0 0.0
2017-Dec-13 12:31N 51°17' E 004°22'0 0.0
2017-Dec-13 12:01N 51°17' E 004°22'0 0.0
2017-Dec-13 11:30N 51°17' E 004°22'0 0.0
2017-Dec-13 11:01N 51°17' E 004°22'0 0.0
2017-Dec-13 10:30N 51°17' E 004°22'0 0.0
2017-Dec-13 10:01N 51°17' E 004°22'0 0.0
2017-Dec-13 09:31N 51°17' E 004°22'0 0.0
2017-Dec-13 09:00N 51°17' E 004°22'0 0.0
2017-Dec-13 08:31N 51°17' E 004°22'0 0.0
2017-Dec-13 08:01N 51°17' E 004°22'0 0.0
2017-Dec-13 07:30N 51°17' E 004°22'0 0.0
2017-Dec-13 07:00N 51°17' E 004°22'0 0.0
2017-Dec-13 06:31N 51°17' E 004°22'0 0.0
2017-Dec-13 06:01N 51°17' E 004°22'0 0.0
2017-Dec-13 05:30N 51°17' E 004°22'0 0.0
2017-Dec-13 05:00N 51°17' E 004°22'0 0.0
2017-Dec-13 04:30N 51°17' E 004°22'0 0.0
2017-Dec-13 04:00N 51°17' E 004°22'0 0.0
2017-Dec-13 03:30N 51°17' E 004°22'0 0.0
2017-Dec-13 03:00N 51°17' E 004°22'0 0.0
2017-Dec-13 02:30N 51°17' E 004°22'0 0.0
2017-Dec-13 02:00N 51°17' E 004°22'0 0.0
2017-Dec-13 01:30N 51°17' E 004°22'0 0.0
2017-Dec-13 01:01N 51°17' E 004°22'0 0.0
2017-Dec-13 00:30N 51°17' E 004°22'0 0.0
2017-Dec-13 00:00N 51°17' E 004°22'0 0.0
2017-Dec-12 23:30N 51°17' E 004°22'0 0.0
2017-Dec-12 23:00N 51°17' E 004°22'0 0.0
2017-Dec-12 22:30N 51°17' E 004°23'0 0.0
2017-Dec-12 22:00N 51°17' E 004°22'0 0.0
2017-Dec-12 21:31N 51°17' E 004°22'0 0.0
2017-Dec-12 21:00N 51°17' E 004°22'0 0.0
2017-Dec-12 20:30N 51°17' E 004°22'0 0.0
2017-Dec-12 20:00N 51°17' E 004°22'0 0.0
2017-Dec-12 19:30N 51°17' E 004°22'0 0.0
2017-Dec-12 19:00N 51°17' E 004°22'0 0.0
2017-Dec-12 18:31N 51°17' E 004°22'0 0.0
2017-Dec-12 18:00N 51°17' E 004°22'0 0.0
2017-Dec-12 17:31N 51°17' E 004°22'0 0.0
2017-Dec-12 17:00N 51°17' E 004°22'0 0.0
2017-Dec-12 16:31N 51°17' E 004°22'0 0.0
2017-Dec-12 16:01N 51°17' E 004°22'0 0.0
2017-Dec-12 15:31N 51°17' E 004°22'0 0.0
2017-Dec-12 15:00N 51°17' E 004°22'0 0.0
2017-Dec-12 14:31N 51°17' E 004°22'0 0.0
2017-Dec-12 14:00N 51°17' E 004°22'0 0.0
2017-Dec-12 13:30N 51°17' E 004°22'0 0.0
2017-Dec-12 13:00N 51°17' E 004°22'0 0.0
2017-Dec-12 12:30N 51°17' E 004°22'0 0.0
2017-Dec-12 12:00N 51°17' E 004°22'0 0.0
2017-Dec-12 11:31N 51°17' E 004°22'0 0.0
2017-Dec-12 11:00N 51°17' E 004°22'0 0.0
2017-Dec-12 10:31N 51°17' E 004°23'0 0.0
2017-Dec-12 10:01N 51°17' E 004°22'0 0.0
2017-Dec-12 09:30N 51°17' E 004°22'0 0.0
2017-Dec-12 09:00N 51°17' E 004°22'0 0.0
2017-Dec-12 08:31N 51°17' E 004°22'0 0.0
2017-Dec-12 08:01N 51°17' E 004°22'0 0.0
2017-Dec-12 07:30N 51°17' E 004°22'0 0.0
2017-Dec-12 07:00N 51°17' E 004°22'0 0.0
2017-Dec-12 06:30N 51°17' E 004°22'0 0.0
2017-Dec-12 06:00N 51°17' E 004°22'0 0.0
2017-Dec-12 05:31N 51°17' E 004°22'0 0.0
2017-Dec-12 05:00N 51°17' E 004°22'0 0.0
2017-Dec-12 04:30N 51°17' E 004°22'0 0.0
2017-Dec-12 04:01N 51°17' E 004°22'0 0.0
2017-Dec-12 03:31N 51°17' E 004°22'0 0.0
2017-Dec-12 03:00N 51°17' E 004°22'0 0.0
2017-Dec-12 02:30N 51°17' E 004°22'0 0.0
2017-Dec-12 02:00N 51°17' E 004°22'0 0.0
2017-Dec-12 01:31N 51°17' E 004°22'0 0.0
2017-Dec-12 01:01N 51°17' E 004°22'0 0.0
2017-Dec-12 00:30N 51°17' E 004°22'0 0.0
2017-Dec-12 00:00N 51°17' E 004°22'0 0.0
2017-Dec-11 23:31N 51°17' E 004°22'0 0.0
2017-Dec-11 23:00N 51°17' E 004°22'0 0.0
2017-Dec-11 22:31N 51°17' E 004°22'0 0.0
2017-Dec-11 22:01N 51°17' E 004°22'0 0.0
2017-Dec-11 21:30N 51°17' E 004°22'0 0.0
2017-Dec-11 21:00N 51°17' E 004°22'0 0.0
2017-Dec-11 20:31N 51°17' E 004°22'0 0.0
2017-Dec-11 20:00N 51°17' E 004°22'0 0.0
2017-Dec-11 19:30N 51°17' E 004°22'0 0.0
2017-Dec-11 19:01N 51°17' E 004°22'0 0.0
2017-Dec-11 18:31N 51°17' E 004°22'0 0.0
2017-Dec-11 18:00N 51°17' E 004°22'0 0.0
2017-Dec-11 17:31N 51°17' E 004°22'0 0.0
2017-Dec-11 17:00N 51°17' E 004°22'0 0.0
2017-Dec-11 16:31N 51°17' E 004°22'0 0.0
2017-Dec-11 16:01N 51°17' E 004°22'0 0.0
2017-Dec-11 15:31N 51°17' E 004°22'0 0.0
2017-Dec-11 15:01N 51°17' E 004°22'0 0.0
2017-Dec-11 14:31N 51°17' E 004°22'0 0.3
2017-Dec-11 14:01N 51°17' E 004°22'0 0.0
2017-Dec-11 13:31N 51°17' E 004°22'0 0.0
2017-Dec-11 13:01N 51°17' E 004°22'0 0.0
2017-Dec-11 12:30N 51°17' E 004°22'0 0.0
2017-Dec-11 12:01N 51°17' E 004°22'0 0.0
2017-Dec-11 11:31N 51°17' E 004°22'0 0.0
2017-Dec-11 11:00N 51°17' E 004°22'0 0.0
2017-Dec-11 10:31N 51°17' E 004°22'0 0.0
2017-Dec-11 10:01N 51°17' E 004°22'0 0.3
2017-Dec-11 09:31N 51°17' E 004°22'0 0.0
2017-Dec-11 09:00N 51°17' E 004°22'0 0.0
2017-Dec-11 08:31N 51°17' E 004°22'0 0.0
2017-Dec-11 08:01N 51°17' E 004°22'0 0.0
2017-Dec-11 07:31N 51°17' E 004°22'0 0.0
2017-Dec-11 07:01N 51°17' E 004°22'0 0.0
2017-Dec-11 06:31N 51°17' E 004°22'0 0.0
2017-Dec-11 06:01N 51°17' E 004°22'0 0.0
2017-Dec-11 05:31N 51°17' E 004°22'0 0.0
2017-Dec-11 05:01N 51°17' E 004°22'0 0.0
2017-Dec-11 04:31N 51°17' E 004°22'0 0.0
2017-Dec-11 04:01N 51°17' E 004°22'0 0.0
2017-Dec-11 03:31N 51°17' E 004°22'0 0.0
2017-Dec-11 03:01N 51°17' E 004°22'0 0.0
2017-Dec-11 02:31N 51°17' E 004°22'0 0.0
2017-Dec-11 02:01N 51°17' E 004°22'0 0.0
2017-Dec-11 01:31N 51°17' E 004°22'0 0.0
2017-Dec-11 01:00N 51°17' E 004°22'0 0.0
2017-Dec-11 00:31N 51°17' E 004°22'0 0.0
2017-Dec-11 00:01N 51°17' E 004°22'0 0.0
2017-Dec-10 23:31N 51°17' E 004°22'0 0.0
2017-Dec-10 23:01N 51°17' E 004°22'0 0.0
2017-Dec-10 22:31N 51°17' E 004°22'0 0.0
2017-Dec-10 22:01N 51°17' E 004°22'0 0.0
2017-Dec-10 21:31N 51°17' E 004°22'0 0.0
2017-Dec-10 21:00N 51°17' E 004°22'0 0.0
2017-Dec-10 20:31N 51°17' E 004°22'0 0.0
2017-Dec-10 20:01N 51°17' E 004°22'0 0.0
2017-Dec-10 19:31N 51°17' E 004°22'0 0.3
2017-Dec-10 19:01N 51°17' E 004°22'0 0.0
2017-Dec-10 18:30N 51°17' E 004°22'0 0.0
2017-Dec-10 18:01N 51°17' E 004°22'0 0.0
2017-Dec-10 17:31N 51°17' E 004°22'0 0.0
2017-Dec-10 17:01N 51°17' E 004°22'0 0.0
2017-Dec-10 16:30N 51°17' E 004°22'0 0.0
2017-Dec-10 16:01N 51°17' E 004°22'0 0.0
2017-Dec-10 15:31N 51°17' E 004°22'0 0.0
2017-Dec-10 15:01N 51°17' E 004°22'0 0.0
2017-Dec-10 14:31N 51°17' E 004°22'0 0.0
2017-Dec-10 14:01N 51°17' E 004°22'0 0.0
2017-Dec-10 13:31N 51°17' E 004°22'0 0.0
2017-Dec-10 13:01N 51°17' E 004°22'0 0.0
2017-Dec-10 12:31N 51°17' E 004°22'0 0.0
2017-Dec-10 12:01N 51°17' E 004°22'0 0.0
2017-Dec-10 11:31N 51°17' E 004°22'0 0.0
2017-Dec-10 11:01N 51°17' E 004°22'0 0.0
2017-Dec-10 10:31N 51°17' E 004°22'0 0.3
2017-Dec-10 10:00N 51°17' E 004°22'0 0.0
2017-Dec-10 09:31N 51°17' E 004°22'0 0.0
2017-Dec-10 09:01N 51°17' E 004°22'0 0.0
2017-Dec-10 08:31N 51°17' E 004°22'0 0.0
2017-Dec-10 08:01N 51°17' E 004°22'0 0.0
2017-Dec-10 07:31N 51°17' E 004°22'0 0.0
2017-Dec-10 07:01N 51°17' E 004°22'0 0.0
2017-Dec-10 06:31N 51°17' E 004°23'0 0.0
2017-Dec-10 06:01N 51°17' E 004°22'0 0.0
2017-Dec-10 05:31N 51°17' E 004°22'0 0.0
2017-Dec-10 05:01N 51°17' E 004°22'0 0.0
2017-Dec-10 04:30N 51°17' E 004°22'0 0.0
2017-Dec-10 04:00N 51°17' E 004°22'0 0.0
2017-Dec-10 03:30N 51°17' E 004°22'0 0.0
2017-Dec-10 03:00N 51°17' E 004°22'0 0.0
2017-Dec-10 02:30N 51°17' E 004°22'0 0.0
2017-Dec-10 02:00N 51°17' E 004°22'0 0.0
2017-Dec-10 01:30N 51°17' E 004°22'0 0.0
2017-Dec-10 01:00N 51°17' E 004°22'0 0.0
2017-Dec-10 00:30N 51°17' E 004°22'0 0.0
2017-Dec-10 00:00N 51°17' E 004°22'0 0.0
2017-Dec-09 23:30N 51°17' E 004°22'0 0.0
2017-Dec-09 23:01N 51°17' E 004°22'0 0.0
2017-Dec-09 22:30N 51°17' E 004°22'0 0.0
2017-Dec-09 22:01N 51°17' E 004°23'0 0.0
2017-Dec-09 21:30N 51°17' E 004°22'0 0.0
2017-Dec-09 21:01N 51°17' E 004°22'0 0.0
2017-Dec-09 20:30N 51°17' E 004°22'0 0.0
2017-Dec-09 20:00N 51°17' E 004°22'0 0.0
2017-Dec-09 19:30N 51°17' E 004°22'0 0.0
2017-Dec-09 19:00N 51°17' E 004°23'0 0.0
2017-Dec-09 18:31N 51°17' E 004°22'0 0.0
2017-Dec-09 18:01N 51°17' E 004°22'0 0.0
2017-Dec-09 17:30N 51°17' E 004°22'0 0.0
2017-Dec-09 17:00N 51°17' E 004°22'0 0.0
2017-Dec-09 16:30N 51°17' E 004°23'0 0.0
2017-Dec-09 16:00N 51°17' E 004°22'0 0.0
2017-Dec-09 15:30N 51°17' E 004°22'0 0.0
2017-Dec-09 15:00N 51°17' E 004°22'0 0.0
2017-Dec-09 14:30N 51°17' E 004°22'0 0.0
2017-Dec-09 14:00N 51°17' E 004°22'0 0.0
2017-Dec-09 13:30N 51°17' E 004°22'0 0.0
2017-Dec-09 13:00N 51°17' E 004°22'0 0.0
2017-Dec-09 12:31N 51°17' E 004°22'0 0.0
2017-Dec-09 12:00N 51°17' E 004°22'0 0.0
2017-Dec-09 11:30N 51°17' E 004°22'0 0.0
2017-Dec-09 11:00N 51°17' E 004°22'0 0.0
2017-Dec-09 10:30N 51°17' E 004°23'0 0.0
2017-Dec-09 10:00N 51°17' E 004°22'0 0.0
2017-Dec-09 09:30N 51°17' E 004°22'0 0.0
2017-Dec-09 09:01N 51°17' E 004°22'0 0.0
2017-Dec-09 08:30N 51°17' E 004°22'0 0.0
2017-Dec-09 08:01N 51°17' E 004°22'0 0.0
2017-Dec-09 07:31N 51°17' E 004°22'0 0.0
2017-Dec-09 07:01N 51°17' E 004°22'1 1.6
2017-Dec-09 06:31N 51°17' E 004°21'3 5.9
2017-Dec-09 06:00N 51°19' E 004°19'2 3.1
2017-Dec-09 05:31N 51°21' E 004°17'0 0.0
2017-Dec-09 05:01N 51°21' E 004°17'0 0.8
2017-Dec-09 04:30N 51°21' E 004°17'0 0.4
2017-Dec-09 04:00N 51°21' E 004°16'3 5.2
2017-Dec-09 03:30N 51°22' E 004°13'3 6.2
2017-Dec-09 03:00N 51°22' E 004°08'5 9.0
2017-Dec-09 02:31N 51°25' E 004°02'4 7.6
2017-Dec-09 02:00N 51°23' E 003°57'713.1
2017-Dec-09 01:30N 51°21' E 003°46'713.3
2017-Dec-09 01:00N 51°26' E 003°39'510.1
2017-Dec-09 00:30N 51°25' E 003°31'816.9
2017-Dec-09 00:00N 51°24' E 003°18'816.2
2017-Dec-08 23:31N 51°24' E 003°05'816.1
2017-Dec-08 23:00N 51°25' E 002°52'712.6
2017-Dec-08 22:29N 51°22' E 002°42'611.6
2017-Dec-08 22:00N 51°22' E 002°33'612.4
2017-Dec-08 21:30N 51°28' E 002°34'712.4
2017-Dec-08 20:59N 51°34' E 002°37'612.0
2017-Dec-08 20:30N 51°40' E 002°39'1514.5
2017-Dec-08 19:26N 51°52' E 002°54'714.3
2017-Dec-08 18:56N 51°50' E 003°06'510.0
2017-Dec-08 18:29N 51°48' E 003°12'3 7.0
2017-Dec-08 18:00N 51°49' E 003°16'3 5.8
2017-Dec-08 17:30N 51°46' E 003°16'4 2.3
2017-Dec-08 15:48N 51°48' E 003°21'0 0.2
2017-Dec-08 15:29N 51°48' E 003°21'0 0.2
2017-Dec-08 15:00N 51°48' E 003°21'0 0.2
2017-Dec-08 14:29N 51°48' E 003°21'1 2.1
2017-Dec-08 13:59N 51°48' E 003°19'5 9.4
2017-Dec-08 13:29N 51°52' E 003°17'511.3
2017-Dec-08 13:01N 51°58' E 003°19'714.3
2017-Dec-08 12:30N 52°05' E 003°21'714.7
2017-Dec-08 12:00N 52°12' E 003°23'714.7
2017-Dec-08 11:30N 52°19' E 003°25'714.6
2017-Dec-08 10:59N 52°27' E 003°28'714.6
2017-Dec-08 10:29N 52°34' E 003°30'713.9
2017-Dec-08 09:59N 52°40' E 003°35'713.4
2017-Dec-08 09:29N 52°45' E 003°42'713.5
2017-Dec-08 08:59N 52°50' E 003°49'613.5
2017-Dec-08 08:31N 52°55' E 003°56'612.3
2017-Dec-08 08:00N 52°60' E 004°04'611.8
2017-Dec-08 07:29N 53°04' E 004°11'611.5
2017-Dec-08 06:59N 53°08' E 004°18'511.3
2017-Dec-08 06:30N 53°11' E 004°25'611.9
2017-Dec-08 06:00N 53°17' E 004°28'612.4
2017-Dec-08 05:29N 53°23' E 004°32'612.7
2017-Dec-08 05:00N 53°28' E 004°37'611.8
2017-Dec-08 04:30N 53°31' E 004°46'611.7
2017-Dec-08 04:00N 53°33' E 004°55'611.6
2017-Dec-08 03:30N 53°35' E 005°04'9711.1
2017-Dec-07 18:50N 54°02' E 007°41'412.4
2017-Dec-07 18:30N 54°02' E 007°48'711.9
2017-Dec-07 17:52N 54°01' E 008°00'411.8
2017-Dec-07 17:30N 54°01' E 008°08'510.5
2017-Dec-07 17:00N 54°00' E 008°17'713.0
2017-Dec-07 16:30N 53°59' E 008°27'816.0
2017-Dec-07 16:00N 53°56' E 008°40'815.3
2017-Dec-07 15:30N 53°50' E 008°49'714.0
2017-Dec-07 15:00N 53°51' E 009°01'611.9
2017-Dec-07 14:30N 53°53' E 009°10'5 9.5
2017-Dec-07 14:01N 53°52' E 009°18'612.4
2017-Dec-07 13:31N 53°46' E 009°24'612.7
2017-Dec-07 13:01N 53°41' E 009°30'713.6
2017-Dec-07 12:31N 53°36' E 009°36'714.2
2017-Dec-07 12:01N 53°33' E 009°48'5 9.1
2017-Dec-07 11:31N 53°33' E 009°55'3 5.0
2017-Dec-07 11:01N 53°32' E 009°59'0 0.0
2017-Dec-07 10:31N 53°32' E 009°59'0 0.0
2017-Dec-07 10:01N 53°32' E 009°59'0 0.0
2017-Dec-07 09:31N 53°32' E 009°59'0 0.0
2017-Dec-07 09:00N 53°32' E 009°59'0 0.0
2017-Dec-07 08:31N 53°32' E 009°59'0 0.0
2017-Dec-07 08:01N 53°32' E 009°59'0 0.0
2017-Dec-07 07:31N 53°32' E 009°59'0 0.0
2017-Dec-07 07:01N 53°32' E 009°59'0 0.0
2017-Dec-07 06:30N 53°32' E 009°59'0 0.0
2017-Dec-07 06:01N 53°32' E 009°59'0 0.0
2017-Dec-07 05:31N 53°32' E 009°59'0 0.0
2017-Dec-07 05:01N 53°32' E 009°59'0 0.0
2017-Dec-07 04:31N 53°32' E 009°59'0 0.0
2017-Dec-07 04:01N 53°32' E 009°59'0 0.0
2017-Dec-07 03:31N 53°32' E 009°59'0 0.0
2017-Dec-07 03:00N 53°32' E 009°59'0 0.0
2017-Dec-07 02:31N 53°32' E 009°59'0 0.0
2017-Dec-07 02:01N 53°32' E 009°59'0 0.0
2017-Dec-07 01:31N 53°32' E 009°59'0 0.0
2017-Dec-07 01:01N 53°32' E 009°59'0 0.0
2017-Dec-07 00:31N 53°32' E 009°59'0 0.0
2017-Dec-07 00:01N 53°32' E 009°59'0 0.0
2017-Dec-06 23:30N 53°32' E 009°59'0 0.0
2017-Dec-06 23:01N 53°32' E 009°59'0 0.0
2017-Dec-06 22:30N 53°32' E 009°59'0 0.0
2017-Dec-06 22:01N 53°32' E 009°59'0 0.0
2017-Dec-06 21:30N 53°32' E 009°59'0 0.0
2017-Dec-06 21:01N 53°32' E 009°59'  
Track history (hours):
 
Tides and Currents Weather Stations Pressure Air Temp Water Temp Dewpoint Dewpoint Depression Visibility Wind Speed Wind Dir Waves Ship Positions

Red Cedar

Last reported at 2017-Dec-15 20:00 UTC. Time now 2017-Dec-15 20:09 UTC.
Position N 51°23' E 002°06'.

Length 193 m; draft 9.8 m.

Type: Ship. MMSI: 538090070.

Date/timePositionNaut miles runAvg speedWind from/ knotsBaromVisibWave heightAir tempDewpointWater temp
2017-Dec-15 20:00N 51°23' E 002°06'816.1
2017-Dec-15 19:30N 51°21' E 002°19'917.4
2017-Dec-15 18:59N 51°23' E 002°33'815.8
2017-Dec-15 18:28N 51°24' E 002°46'716.0
2017-Dec-15 18:00N 51°25' E 002°57'917.6
2017-Dec-15 17:31N 51°24' E 003°12'918.3
2017-Dec-15 17:00N 51°25' E 003°26'917.3
2017-Dec-15 16:30N 51°27' E 003°40'714.4
2017-Dec-15 16:00N 51°21' E 003°48'713.8
2017-Dec-15 15:30N 51°24' E 003°57'4 8.1
2017-Dec-15 15:00N 51°23' E 004°03'612.0
2017-Dec-15 14:30N 51°23' E 004°13'4 7.3
2017-Dec-15 14:00N 51°21' E 004°17'0 0.0
2017-Dec-15 13:30N 51°21' E 004°17'0 0.0
2017-Dec-15 13:00N 51°21' E 004°17'1 1.0
2017-Dec-15 12:30N 51°20' E 004°18'3 6.9
2017-Dec-15 12:01N 51°17' E 004°20'2 3.1
2017-Dec-15 11:31N 51°17' E 004°22'0 0.1
2017-Dec-15 11:01N 51°17' E 004°22'0 0.0
2017-Dec-15 10:31N 51°17' E 004°22'0 0.0
2017-Dec-15 10:01N 51°17' E 004°22'0 0.0
2017-Dec-15 09:31N 51°17' E 004°22'0 0.0
2017-Dec-15 09:00N 51°17' E 004°22'0 0.0
2017-Dec-15 08:31N 51°17' E 004°22'0 0.0
2017-Dec-15 08:00N 51°17' E 004°22'0 0.0
2017-Dec-15 07:31N 51°17' E 004°22'0 0.0
2017-Dec-15 07:01N 51°17' E 004°22'0 0.0
2017-Dec-15 06:31N 51°17' E 004°22'0 0.0
2017-Dec-15 06:01N 51°17' E 004°22'0 0.0
2017-Dec-15 05:31N 51°17' E 004°22'0 0.0
2017-Dec-15 05:01N 51°17' E 004°22'0 0.0
2017-Dec-15 04:31N 51°17' E 004°22'0 0.0
2017-Dec-15 04:01N 51°17' E 004°22'0 0.0
2017-Dec-15 02:31N 51°17' E 004°23'0 0.0
2017-Dec-15 01:01N 51°17' E 004°22'0 0.0
2017-Dec-15 00:30N 51°17' E 004°22'0 0.0
2017-Dec-14 18:31N 51°17' E 004°23'0 0.0
2017-Dec-14 18:01N 51°17' E 004°22'0 0.0
2017-Dec-14 17:31N 51°17' E 004°22'0 0.0
2017-Dec-14 17:01N 51°17' E 004°22'0 0.0
2017-Dec-14 16:31N 51°17' E 004°22'0 0.0
2017-Dec-14 16:01N 51°17' E 004°22'0 0.0
2017-Dec-14 15:01N 51°17' E 004°22'0 0.0
2017-Dec-14 14:31N 51°17' E 004°22'0 0.0
2017-Dec-14 14:01N 51°17' E 004°22'0 0.0
2017-Dec-14 13:31N 51°17' E 004°22'0 0.0
2017-Dec-14 13:01N 51°17' E 004°22'0 0.0
2017-Dec-14 12:31N 51°17' E 004°22'0 0.0
2017-Dec-14 12:01N 51°17' E 004°22'0 0.0
2017-Dec-14 11:31N 51°17' E 004°22'0 0.0
2017-Dec-14 11:01N 51°17' E 004°22'0 0.0
2017-Dec-14 10:31N 51°17' E 004°22'0 0.0
2017-Dec-14 10:00N 51°17' E 004°22'0 0.0
2017-Dec-14 09:31N 51°17' E 004°22'0 0.0
2017-Dec-14 09:01N 51°17' E 004°22'0 0.0
2017-Dec-14 08:31N 51°17' E 004°22'0 0.0
2017-Dec-14 08:01N 51°17' E 004°22'0 0.0
2017-Dec-14 07:31N 51°17' E 004°22'0 0.0
2017-Dec-14 07:01N 51°17' E 004°22'0 0.0
2017-Dec-14 06:30N 51°17' E 004°22'0 0.0
2017-Dec-14 06:01N 51°17' E 004°22'0 0.0
2017-Dec-14 05:31N 51°17' E 004°22'0 0.0
2017-Dec-14 05:01N 51°17' E 004°22'0 0.0
2017-Dec-14 04:31N 51°17' E 004°22'0 0.0
2017-Dec-14 04:00N 51°17' E 004°22'0 0.0
2017-Dec-14 03:30N 51°17' E 004°22'0 0.0
2017-Dec-14 03:01N 51°17' E 004°22'0 0.0
2017-Dec-14 02:31N 51°17' E 004°22'0 0.0
2017-Dec-14 02:01N 51°17' E 004°22'0 0.0
2017-Dec-14 01:31N 51°17' E 004°22'0 0.0
2017-Dec-14 01:00N 51°17' E 004°22'0 0.0
2017-Dec-14 00:31N 51°17' E 004°22'0 0.0
2017-Dec-14 00:00N 51°17' E 004°22'0 0.0
2017-Dec-13 23:31N 51°17' E 004°22'0 0.0
2017-Dec-13 23:00N 51°17' E 004°22'0 0.0
2017-Dec-13 22:31N 51°17' E 004°22'0 0.0
2017-Dec-13 22:01N 51°17' E 004°22'0 0.0
2017-Dec-13 21:31N 51°17' E 004°22'0 0.0
2017-Dec-13 21:01N 51°17' E 004°22'0 0.0
2017-Dec-13 20:31N 51°17' E 004°22'0 0.0
2017-Dec-13 20:01N 51°17' E 004°22'0 0.0
2017-Dec-13 19:30N 51°17' E 004°22'0 0.0
2017-Dec-13 19:01N 51°17' E 004°22'0 0.0
2017-Dec-13 18:31N 51°17' E 004°22'0 0.0
2017-Dec-13 18:00N 51°17' E 004°22'0 0.0
2017-Dec-13 17:30N 51°17' E 004°22'0 0.0
2017-Dec-13 17:01N 51°17' E 004°22'0 0.0
2017-Dec-13 16:30N 51°17' E 004°22'0 0.0
2017-Dec-13 16:01N 51°17' E 004°22'0 0.0
2017-Dec-13 15:30N 51°17' E 004°22'0 0.0
2017-Dec-13 15:00N 51°17' E 004°22'0 0.0
2017-Dec-13 14:30N 51°17' E 004°22'0 0.0
2017-Dec-13 14:00N 51°17' E 004°22'0 0.0
2017-Dec-13 13:31N 51°17' E 004°22'0 0.0
2017-Dec-13 13:00N 51°17' E 004°22'0 0.0
2017-Dec-13 12:31N 51°17' E 004°22'0 0.0
2017-Dec-13 12:01N 51°17' E 004°22'0 0.0
2017-Dec-13 11:30N 51°17' E 004°22'0 0.0
2017-Dec-13 11:01N 51°17' E 004°22'0 0.0
2017-Dec-13 10:30N 51°17' E 004°22'0 0.0
2017-Dec-13 10:01N 51°17' E 004°22'0 0.0
2017-Dec-13 09:31N 51°17' E 004°22'0 0.0
2017-Dec-13 09:00N 51°17' E 004°22'0 0.0
2017-Dec-13 08:31N 51°17' E 004°22'0 0.0
2017-Dec-13 08:01N 51°17' E 004°22'0 0.0
2017-Dec-13 07:30N 51°17' E 004°22'0 0.0
2017-Dec-13 07:00N 51°17' E 004°22'0 0.0
2017-Dec-13 06:31N 51°17' E 004°22'0 0.0
2017-Dec-13 06:01N 51°17' E 004°22'0 0.0
2017-Dec-13 05:30N 51°17' E 004°22'0 0.0
2017-Dec-13 05:00N 51°17' E 004°22'0 0.0
2017-Dec-13 04:30N 51°17' E 004°22'0 0.0
2017-Dec-13 04:00N 51°17' E 004°22'0 0.0
2017-Dec-13 03:30N 51°17' E 004°22'0 0.0
2017-Dec-13 03:00N 51°17' E 004°22'0 0.0
2017-Dec-13 02:30N 51°17' E 004°22'0 0.0
2017-Dec-13 02:00N 51°17' E 004°22'0 0.0
2017-Dec-13 01:30N 51°17' E 004°22'0 0.0
2017-Dec-13 01:01N 51°17' E 004°22'0 0.0
2017-Dec-13 00:30N 51°17' E 004°22'0 0.0
2017-Dec-13 00:00N 51°17' E 004°22'0 0.0
2017-Dec-12 23:30N 51°17' E 004°22'0 0.0
2017-Dec-12 23:00N 51°17' E 004°22'0 0.0
2017-Dec-12 22:30N 51°17' E 004°23'0 0.0
2017-Dec-12 22:00N 51°17' E 004°22'0 0.0
2017-Dec-12 21:31N 51°17' E 004°22'0 0.0
2017-Dec-12 21:00N 51°17' E 004°22'0 0.0
2017-Dec-12 20:30N 51°17' E 004°22'0 0.0
2017-Dec-12 20:00N 51°17' E 004°22'0 0.0
2017-Dec-12 19:30N 51°17' E 004°22'0 0.0
2017-Dec-12 19:00N 51°17' E 004°22'0 0.0
2017-Dec-12 18:31N 51°17' E 004°22'0 0.0
2017-Dec-12 18:00N 51°17' E 004°22'0 0.0
2017-Dec-12 17:31N 51°17' E 004°22'0 0.0
2017-Dec-12 17:00N 51°17' E 004°22'0 0.0
2017-Dec-12 16:31N 51°17' E 004°22'0 0.0
2017-Dec-12 16:01N 51°17' E 004°22'0 0.0
2017-Dec-12 15:31N 51°17' E 004°22'0 0.0
2017-Dec-12 15:00N 51°17' E 004°22'0 0.0
2017-Dec-12 14:31N 51°17' E 004°22'0 0.0
2017-Dec-12 14:00N 51°17' E 004°22'0 0.0
2017-Dec-12 13:30N 51°17' E 004°22'0 0.0
2017-Dec-12 13:00N 51°17' E 004°22'0 0.0
2017-Dec-12 12:30N 51°17' E 004°22'0 0.0
2017-Dec-12 12:00N 51°17' E 004°22'0 0.0
2017-Dec-12 11:31N 51°17' E 004°22'0 0.0
2017-Dec-12 11:00N 51°17' E 004°22'0 0.0
2017-Dec-12 10:31N 51°17' E 004°23'0 0.0
2017-Dec-12 10:01N 51°17' E 004°22'0 0.0
2017-Dec-12 09:30N 51°17' E 004°22'0 0.0
2017-Dec-12 09:00N 51°17' E 004°22'0 0.0
2017-Dec-12 08:31N 51°17' E 004°22'0 0.0
2017-Dec-12 08:01N 51°17' E 004°22'0 0.0
2017-Dec-12 07:30N 51°17' E 004°22'0 0.0
2017-Dec-12 07:00N 51°17' E 004°22'0 0.0
2017-Dec-12 06:30N 51°17' E 004°22'0 0.0
2017-Dec-12 06:00N 51°17' E 004°22'0 0.0
2017-Dec-12 05:31N 51°17' E 004°22'0 0.0
2017-Dec-12 05:00N 51°17' E 004°22'0 0.0
2017-Dec-12 04:30N 51°17' E 004°22'0 0.0
2017-Dec-12 04:01N 51°17' E 004°22'0 0.0
2017-Dec-12 03:31N 51°17' E 004°22'0 0.0
2017-Dec-12 03:00N 51°17' E 004°22'0 0.0
2017-Dec-12 02:30N 51°17' E 004°22'0 0.0
2017-Dec-12 02:00N 51°17' E 004°22'0 0.0
2017-Dec-12 01:31N 51°17' E 004°22'0 0.0
2017-Dec-12 01:01N 51°17' E 004°22'0 0.0
2017-Dec-12 00:30N 51°17' E 004°22'0 0.0
2017-Dec-12 00:00N 51°17' E 004°22'0 0.0
2017-Dec-11 23:31N 51°17' E 004°22'0 0.0
2017-Dec-11 23:00N 51°17' E 004°22'0 0.0
2017-Dec-11 22:31N 51°17' E 004°22'0 0.0
2017-Dec-11 22:01N 51°17' E 004°22'0 0.0
2017-Dec-11 21:30N 51°17' E 004°22'0 0.0
2017-Dec-11 21:00N 51°17' E 004°22'0 0.0
2017-Dec-11 20:31N 51°17' E 004°22'0 0.0
2017-Dec-11 20:00N 51°17' E 004°22'0 0.0
2017-Dec-11 19:30N 51°17' E 004°22'0 0.0
2017-Dec-11 19:01N 51°17' E 004°22'0 0.0
2017-Dec-11 18:31N 51°17' E 004°22'0 0.0
2017-Dec-11 18:00N 51°17' E 004°22'0 0.0
2017-Dec-11 17:31N 51°17' E 004°22'0 0.0
2017-Dec-11 17:00N 51°17' E 004°22'0 0.0
2017-Dec-11 16:31N 51°17' E 004°22'0 0.0
2017-Dec-11 16:01N 51°17' E 004°22'0 0.0
2017-Dec-11 15:31N 51°17' E 004°22'0 0.0
2017-Dec-11 15:01N 51°17' E 004°22'0 0.0
2017-Dec-11 14:31N 51°17' E 004°22'0 0.3
2017-Dec-11 14:01N 51°17' E 004°22'0 0.0
2017-Dec-11 13:31N 51°17' E 004°22'0 0.0
2017-Dec-11 13:01N 51°17' E 004°22'0 0.0
2017-Dec-11 12:30N 51°17' E 004°22'0 0.0
2017-Dec-11 12:01N 51°17' E 004°22'0 0.0
2017-Dec-11 11:31N 51°17' E 004°22'0 0.0
2017-Dec-11 11:00N 51°17' E 004°22'0 0.0
2017-Dec-11 10:31N 51°17' E 004°22'0 0.0
2017-Dec-11 10:01N 51°17' E 004°22'0 0.3
2017-Dec-11 09:31N 51°17' E 004°22'0 0.0
2017-Dec-11 09:00N 51°17' E 004°22'0 0.0
2017-Dec-11 08:31N 51°17' E 004°22'0 0.0
2017-Dec-11 08:01N 51°17' E 004°22'0 0.0
2017-Dec-11 07:31N 51°17' E 004°22'0 0.0
2017-Dec-11 07:01N 51°17' E 004°22'0 0.0
2017-Dec-11 06:31N 51°17' E 004°22'0 0.0
2017-Dec-11 06:01N 51°17' E 004°22'0 0.0
2017-Dec-11 05:31N 51°17' E 004°22'0 0.0
2017-Dec-11 05:01N 51°17' E 004°22'0 0.0
2017-Dec-11 04:31N 51°17' E 004°22'0 0.0
2017-Dec-11 04:01N 51°17' E 004°22'0 0.0
2017-Dec-11 03:31N 51°17' E 004°22'0 0.0
2017-Dec-11 03:01N 51°17' E 004°22'0 0.0
2017-Dec-11 02:31N 51°17' E 004°22'0 0.0
2017-Dec-11 02:01N 51°17' E 004°22'0 0.0
2017-Dec-11 01:31N 51°17' E 004°22'0 0.0
2017-Dec-11 01:00N 51°17' E 004°22'0 0.0
2017-Dec-11 00:31N 51°17' E 004°22'0 0.0
2017-Dec-11 00:01N 51°17' E 004°22'0 0.0
2017-Dec-10 23:31N 51°17' E 004°22'0 0.0
2017-Dec-10 23:01N 51°17' E 004°22'0 0.0
2017-Dec-10 22:31N 51°17' E 004°22'0 0.0
2017-Dec-10 22:01N 51°17' E 004°22'0 0.0
2017-Dec-10 21:31N 51°17' E 004°22'0 0.0
2017-Dec-10 21:00N 51°17' E 004°22'0 0.0
2017-Dec-10 20:31N 51°17' E 004°22'0 0.0
2017-Dec-10 20:01N 51°17' E 004°22'0 0.0
2017-Dec-10 19:31N 51°17' E 004°22'0 0.3
2017-Dec-10 19:01N 51°17' E 004°22'0 0.0
2017-Dec-10 18:30N 51°17' E 004°22'0 0.0
2017-Dec-10 18:01N 51°17' E 004°22'0 0.0
2017-Dec-10 17:31N 51°17' E 004°22'0 0.0
2017-Dec-10 17:01N 51°17' E 004°22'0 0.0
2017-Dec-10 16:30N 51°17' E 004°22'0 0.0
2017-Dec-10 16:01N 51°17' E 004°22'0 0.0
2017-Dec-10 15:31N 51°17' E 004°22'0 0.0
2017-Dec-10 15:01N 51°17' E 004°22'0 0.0
2017-Dec-10 14:31N 51°17' E 004°22'0 0.0
2017-Dec-10 14:01N 51°17' E 004°22'0 0.0
2017-Dec-10 13:31N 51°17' E 004°22'0 0.0
2017-Dec-10 13:01N 51°17' E 004°22'0 0.0
2017-Dec-10 12:31N 51°17' E 004°22'0 0.0
2017-Dec-10 12:01N 51°17' E 004°22'0 0.0
2017-Dec-10 11:31N 51°17' E 004°22'0 0.0
2017-Dec-10 11:01N 51°17' E 004°22'0 0.0
2017-Dec-10 10:31N 51°17' E 004°22'0 0.3
2017-Dec-10 10:00N 51°17' E 004°22'0 0.0
2017-Dec-10 09:31N 51°17' E 004°22'0 0.0
2017-Dec-10 09:01N 51°17' E 004°22'0 0.0
2017-Dec-10 08:31N 51°17' E 004°22'0 0.0
2017-Dec-10 08:01N 51°17' E 004°22'0 0.0
2017-Dec-10 07:31N 51°17' E 004°22'0 0.0
2017-Dec-10 07:01N 51°17' E 004°22'0 0.0
2017-Dec-10 06:31N 51°17' E 004°23'0 0.0
2017-Dec-10 06:01N 51°17' E 004°22'0 0.0
2017-Dec-10 05:31N 51°17' E 004°22'0 0.0
2017-Dec-10 05:01N 51°17' E 004°22'0 0.0
2017-Dec-10 04:30N 51°17' E 004°22'0 0.0
2017-Dec-10 04:00N 51°17' E 004°22'0 0.0
2017-Dec-10 03:30N 51°17' E 004°22'0 0.0
2017-Dec-10 03:00N 51°17' E 004°22'0 0.0
2017-Dec-10 02:30N 51°17' E 004°22'0 0.0
2017-Dec-10 02:00N 51°17' E 004°22'0 0.0
2017-Dec-10 01:30N 51°17' E 004°22'0 0.0
2017-Dec-10 01:00N 51°17' E 004°22'0 0.0
2017-Dec-10 00:30N 51°17' E 004°22'0 0.0
2017-Dec-10 00:00N 51°17' E 004°22'0 0.0
2017-Dec-09 23:30N 51°17' E 004°22'0 0.0
2017-Dec-09 23:01N 51°17' E 004°22'0 0.0
2017-Dec-09 22:30N 51°17' E 004°22'0 0.0
2017-Dec-09 22:01N 51°17' E 004°23'0 0.0
2017-Dec-09 21:30N 51°17' E 004°22'0 0.0
2017-Dec-09 21:01N 51°17' E 004°22'0 0.0
2017-Dec-09 20:30N 51°17' E 004°22'0 0.0
2017-Dec-09 20:00N 51°17' E 004°22'0 0.0
2017-Dec-09 19:30N 51°17' E 004°22'0 0.0
2017-Dec-09 19:00N 51°17' E 004°23'0 0.0
2017-Dec-09 18:31N 51°17' E 004°22'0 0.0
2017-Dec-09 18:01N 51°17' E 004°22'0 0.0
2017-Dec-09 17:30N 51°17' E 004°22'0 0.0
2017-Dec-09 17:00N 51°17' E 004°22'0 0.0
2017-Dec-09 16:30N 51°17' E 004°23'0 0.0
2017-Dec-09 16:00N 51°17' E 004°22'0 0.0
2017-Dec-09 15:30N 51°17' E 004°22'0 0.0
2017-Dec-09 15:00N 51°17' E 004°22'0 0.0
2017-Dec-09 14:30N 51°17' E 004°22'0 0.0
2017-Dec-09 14:00N 51°17' E 004°22'0 0.0
2017-Dec-09 13:30N 51°17' E 004°22'0 0.0
2017-Dec-09 13:00N 51°17' E 004°22'0 0.0
2017-Dec-09 12:31N 51°17' E 004°22'0 0.0
2017-Dec-09 12:00N 51°17' E 004°22'0 0.0
2017-Dec-09 11:30N 51°17' E 004°22'0 0.0
2017-Dec-09 11:00N 51°17' E 004°22'0 0.0
2017-Dec-09 10:30N 51°17' E 004°23'0 0.0
2017-Dec-09 10:00N 51°17' E 004°22'0 0.0
2017-Dec-09 09:30N 51°17' E 004°22'0 0.0
2017-Dec-09 09:01N 51°17' E 004°22'0 0.0
2017-Dec-09 08:30N 51°17' E 004°22'0 0.0
2017-Dec-09 08:01N 51°17' E 004°22'0 0.0
2017-Dec-09 07:31N 51°17' E 004°22'0 0.0
2017-Dec-09 07:01N 51°17' E 004°22'1 1.6
2017-Dec-09 06:31N 51°17' E 004°21'3 5.9
2017-Dec-09 06:00N 51°19' E 004°19'2 3.1
2017-Dec-09 05:31N 51°21' E 004°17'0 0.0
2017-Dec-09 05:01N 51°21' E 004°17'0 0.8
2017-Dec-09 04:30N 51°21' E 004°17'0 0.4
2017-Dec-09 04:00N 51°21' E 004°16'3 5.2
2017-Dec-09 03:30N 51°22' E 004°13'3 6.2
2017-Dec-09 03:00N 51°22' E 004°08'5 9.0
2017-Dec-09 02:31N 51°25' E 004°02'4 7.6
2017-Dec-09 02:00N 51°23' E 003°57'713.1
2017-Dec-09 01:30N 51°21' E 003°46'713.3
2017-Dec-09 01:00N 51°26' E 003°39'510.1
2017-Dec-09 00:30N 51°25' E 003°31'816.9
2017-Dec-09 00:00N 51°24' E 003°18'816.2
2017-Dec-08 23:31N 51°24' E 003°05'816.1
2017-Dec-08 23:00N 51°25' E 002°52'712.6
2017-Dec-08 22:29N 51°22' E 002°42'611.6
2017-Dec-08 22:00N 51°22' E 002°33'612.4
2017-Dec-08 21:30N 51°28' E 002°34'712.4
2017-Dec-08 20:59N 51°34' E 002°37'612.0
2017-Dec-08 20:30N 51°40' E 002°39'1514.5
2017-Dec-08 19:26N 51°52' E 002°54'714.3
2017-Dec-08 18:56N 51°50' E 003°06'510.0
2017-Dec-08 18:29N 51°48' E 003°12'3 7.0
2017-Dec-08 18:00N 51°49' E 003°16'3 5.8
2017-Dec-08 17:30N 51°46' E 003°16'4 2.3
2017-Dec-08 15:48N 51°48' E 003°21'0 0.2
2017-Dec-08 15:29N 51°48' E 003°21'0 0.2
2017-Dec-08 15:00N 51°48' E 003°21'0 0.2
2017-Dec-08 14:29N 51°48' E 003°21'1 2.1
2017-Dec-08 13:59N 51°48' E 003°19'5 9.4
2017-Dec-08 13:29N 51°52' E 003°17'511.3
2017-Dec-08 13:01N 51°58' E 003°19'714.3
2017-Dec-08 12:30N 52°05' E 003°21'714.7
2017-Dec-08 12:00N 52°12' E 003°23'714.7
2017-Dec-08 11:30N 52°19' E 003°25'714.6
2017-Dec-08 10:59N 52°27' E 003°28'714.6
2017-Dec-08 10:29N 52°34' E 003°30'713.9
2017-Dec-08 09:59N 52°40' E 003°35'713.4
2017-Dec-08 09:29N 52°45' E 003°42'713.5
2017-Dec-08 08:59N 52°50' E 003°49'613.5
2017-Dec-08 08:31N 52°55' E 003°56'612.3
2017-Dec-08 08:00N 52°60' E 004°04'611.8
2017-Dec-08 07:29N 53°04' E 004°11'611.5
2017-Dec-08 06:59N 53°08' E 004°18'511.3
2017-Dec-08 06:30N 53°11' E 004°25'611.9
2017-Dec-08 06:00N 53°17' E 004°28'612.4
2017-Dec-08 05:29N 53°23' E 004°32'612.7
2017-Dec-08 05:00N 53°28' E 004°37'611.8
2017-Dec-08 04:30N 53°31' E 004°46'611.7
2017-Dec-08 04:00N 53°33' E 004°55'611.6
2017-Dec-08 03:30N 53°35' E 005°04'9711.1
2017-Dec-07 18:50N 54°02' E 007°41'412.4
2017-Dec-07 18:30N 54°02' E 007°48'711.9
2017-Dec-07 17:52N 54°01' E 008°00'411.8
2017-Dec-07 17:30N 54°01' E 008°08'510.5
2017-Dec-07 17:00N 54°00' E 008°17'713.0
2017-Dec-07 16:30N 53°59' E 008°27'816.0
2017-Dec-07 16:00N 53°56' E 008°40'815.3
2017-Dec-07 15:30N 53°50' E 008°49'714.0
2017-Dec-07 15:00N 53°51' E 009°01'611.9
2017-Dec-07 14:30N 53°53' E 009°10'5 9.5
2017-Dec-07 14:01N 53°52' E 009°18'612.4
2017-Dec-07 13:31N 53°46' E 009°24'612.7
2017-Dec-07 13:01N 53°41' E 009°30'713.6
2017-Dec-07 12:31N 53°36' E 009°36'714.2
2017-Dec-07 12:01N 53°33' E 009°48'5 9.1
2017-Dec-07 11:31N 53°33' E 009°55'3 5.0
2017-Dec-07 11:01N 53°32' E 009°59'0 0.0
2017-Dec-07 10:31N 53°32' E 009°59'0 0.0
2017-Dec-07 10:01N 53°32' E 009°59'0 0.0
2017-Dec-07 09:31N 53°32' E 009°59'0 0.0
2017-Dec-07 09:00N 53°32' E 009°59'0 0.0
2017-Dec-07 08:31N 53°32' E 009°59'0 0.0
2017-Dec-07 08:01N 53°32' E 009°59'0 0.0
2017-Dec-07 07:31N 53°32' E 009°59'0 0.0
2017-Dec-07 07:01N 53°32' E 009°59'0 0.0
2017-Dec-07 06:30N 53°32' E 009°59'0 0.0
2017-Dec-07 06:01N 53°32' E 009°59'0 0.0
2017-Dec-07 05:31N 53°32' E 009°59'0 0.0
2017-Dec-07 05:01N 53°32' E 009°59'0 0.0
2017-Dec-07 04:31N 53°32' E 009°59'0 0.0
2017-Dec-07 04:01N 53°32' E 009°59'0 0.0
2017-Dec-07 03:31N 53°32' E 009°59'0 0.0
2017-Dec-07 03:00N 53°32' E 009°59'0 0.0
2017-Dec-07 02:31N 53°32' E 009°59'0 0.0
2017-Dec-07 02:01N 53°32' E 009°59'0 0.0
2017-Dec-07 01:31N 53°32' E 009°59'0 0.0
2017-Dec-07 01:01N 53°32' E 009°59'0 0.0
2017-Dec-07 00:31N 53°32' E 009°59'0 0.0
2017-Dec-07 00:01N 53°32' E 009°59'0 0.0
2017-Dec-06 23:30N 53°32' E 009°59'0 0.0
2017-Dec-06 23:01N 53°32' E 009°59'0 0.0
2017-Dec-06 22:30N 53°32' E 009°59'0 0.0
2017-Dec-06 22:01N 53°32' E 009°59'0 0.0
2017-Dec-06 21:30N 53°32' E 009°59'0 0.0
2017-Dec-06 21:01N 53°32' E 009°59'  

Dump ship's entire track history